sensor_id;sensor_type;location;lat;lon;timestamp;pressure;altitude;pressure_sealevel;temperature;humidity
11223;BME280;5668;52.012;8.724;2023-02-07T00:00:17;102692.44;;;1.61;90.59
11223;BME280;5668;52.012;8.724;2023-02-07T00:02:46;102697.53;;;1.53;90.86
11223;BME280;5668;52.012;8.724;2023-02-07T00:05:14;102694.06;;;1.45;91.53
11223;BME280;5668;52.012;8.724;2023-02-07T00:07:41;102690.63;;;1.40;91.51
11223;BME280;5668;52.012;8.724;2023-02-07T00:10:11;102677.00;;;1.47;91.90
11223;BME280;5668;52.012;8.724;2023-02-07T00:12:39;102682.16;;;1.50;90.61
11223;BME280;5668;52.012;8.724;2023-02-07T00:15:07;102681.25;;;1.45;91.05
11223;BME280;5668;52.012;8.724;2023-02-07T00:17:36;102687.22;;;1.44;90.33
11223;BME280;5668;52.012;8.724;2023-02-07T00:20:05;102687.22;;;1.44;91.57
11223;BME280;5668;52.012;8.724;2023-02-07T00:22:34;102680.44;;;1.47;90.89
11223;BME280;5668;52.012;8.724;2023-02-07T00:25:01;102669.34;;;1.51;91.61
11223;BME280;5668;52.012;8.724;2023-02-07T00:27:28;102661.69;;;1.56;91.47
11223;BME280;5668;52.012;8.724;2023-02-07T00:29:56;102652.31;;;1.60;91.59
11223;BME280;5668;52.012;8.724;2023-02-07T00:32:23;102654.88;;;1.61;91.31
11223;BME280;5668;52.012;8.724;2023-02-07T00:34:51;102662.53;;;1.58;90.84
11223;BME280;5668;52.012;8.724;2023-02-07T00:37:19;102649.72;;;1.49;90.62
11223;BME280;5668;52.012;8.724;2023-02-07T00:39:46;102634.31;;;1.46;91.23
11223;BME280;5668;52.012;8.724;2023-02-07T00:42:13;102629.19;;;1.47;90.60
11223;BME280;5668;52.012;8.724;2023-02-07T00:44:40;102618.13;;;1.50;91.47
11223;BME280;5668;52.012;8.724;2023-02-07T00:47:07;102613.00;;;1.53;91.67
11223;BME280;5668;52.012;8.724;2023-02-07T00:49:34;102627.53;;;1.59;91.45
11223;BME280;5668;52.012;8.724;2023-02-07T00:52:03;102627.56;;;1.62;91.64
11223;BME280;5668;52.012;8.724;2023-02-07T00:54:31;102622.44;;;1.66;91.21
11223;BME280;5668;52.012;8.724;2023-02-07T00:56:58;102617.34;;;1.69;91.12
11223;BME280;5668;52.012;8.724;2023-02-07T00:59:25;102618.19;;;1.68;91.38
11223;BME280;5668;52.012;8.724;2023-02-07T01:01:52;102613.06;;;1.65;91.75
11223;BME280;5668;52.012;8.724;2023-02-07T01:04:19;102607.06;;;1.66;91.24
11223;BME280;5668;52.012;8.724;2023-02-07T01:06:47;102607.06;;;1.66;90.89
11223;BME280;5668;52.012;8.724;2023-02-07T01:09:15;102600.25;;;1.65;90.74
11223;BME280;5668;52.012;8.724;2023-02-07T01:11:43;102601.94;;;1.62;89.89
11223;BME280;5668;52.012;8.724;2023-02-07T01:14:10;102602.78;;;1.62;91.02
11223;BME280;5668;52.012;8.724;2023-02-07T01:16:37;102615.59;;;1.62;90.37
11223;BME280;5668;52.012;8.724;2023-02-07T01:19:06;102597.66;;;1.61;89.60
11223;BME280;5668;52.012;8.724;2023-02-07T01:21:34;102608.75;;;1.61;90.28
11223;BME280;5668;52.012;8.724;2023-02-07T01:24:01;102607.88;;;1.59;90.68
11223;BME280;5668;52.012;8.724;2023-02-07T01:26:29;102615.59;;;1.61;90.15
11223;BME280;5668;52.012;8.724;2023-02-07T01:28:57;102620.72;;;1.62;90.71
11223;BME280;5668;52.012;8.724;2023-02-07T01:31:24;102617.31;;;1.66;90.67
11223;BME280;5668;52.012;8.724;2023-02-07T01:33:55;102626.72;;;1.67;90.02
11223;BME280;5668;52.012;8.724;2023-02-07T01:36:27;102623.31;;;1.68;90.28
11223;BME280;5668;52.012;8.724;2023-02-07T01:38:55;102631.84;;;1.67;90.57
11223;BME280;5668;52.012;8.724;2023-02-07T01:41:24;102620.75;;;1.65;90.37
11223;BME280;5668;52.012;8.724;2023-02-07T01:43:59;102619.00;;;1.66;90.53
11223;BME280;5668;52.012;8.724;2023-02-07T01:46:28;102624.16;;;1.63;90.52
11223;BME280;5668;52.012;8.724;2023-02-07T01:48:59;102638.66;;;1.62;90.85
11223;BME280;5668;52.012;8.724;2023-02-07T01:51:29;102634.38;;;1.61;90.37
11223;BME280;5668;52.012;8.724;2023-02-07T01:54:02;102628.41;;;1.61;89.89
11223;BME280;5668;52.012;8.724;2023-02-07T01:56:31;102613.00;;;1.56;90.25
11223;BME280;5668;52.012;8.724;2023-02-07T01:59:03;102625.81;;;1.56;90.44
11223;BME280;5668;52.012;8.724;2023-02-07T02:01:31;102630.06;;;1.54;90.39
11223;BME280;5668;52.012;8.724;2023-02-07T02:03:59;102629.22;;;1.52;90.35
11223;BME280;5668;52.012;8.724;2023-02-07T02:06:28;102613.00;;;1.53;90.33
11223;BME280;5668;52.012;8.724;2023-02-07T02:08:57;102615.53;;;1.51;90.46
11223;BME280;5668;52.012;8.724;2023-02-07T02:14:27;102603.53;;;1.43;89.48
11223;BME280;5668;52.012;8.724;2023-02-07T02:17:06;102614.63;;;1.39;89.52
11223;BME280;5668;52.012;8.724;2023-02-07T02:22:55;102609.50;;;1.34;89.50
11223;BME280;5668;52.012;8.724;2023-02-07T02:25:48;102612.03;;;1.33;89.38
11223;BME280;5668;52.012;8.724;2023-02-07T02:28:50;102614.63;;;1.34;89.03
11223;BME280;5668;52.012;8.724;2023-02-07T02:31:47;102622.28;;;1.33;89.17
11223;BME280;5668;52.012;8.724;2023-02-07T02:34:23;102617.09;;;1.24;89.33
11223;BME280;5668;52.012;8.724;2023-02-07T02:36:59;102622.19;;;1.21;89.29
11223;BME280;5668;52.012;8.724;2023-02-07T02:39:31;102615.38;;;1.21;89.60
11223;BME280;5668;52.012;8.724;2023-02-07T02:42:10;102617.06;;;1.21;89.37
11223;BME280;5668;52.012;8.724;2023-02-07T02:44:43;102617.06;;;1.21;89.56
11223;BME280;5668;52.012;8.724;2023-02-07T02:47:11;102614.53;;;1.22;89.32
11223;BME280;5668;52.012;8.724;2023-02-07T02:49:42;102610.28;;;1.24;89.66
11223;BME280;5668;52.012;8.724;2023-02-07T02:52:10;102609.41;;;1.22;90.38
11223;BME280;5668;52.012;8.724;2023-02-07T02:54:39;102608.56;;;1.23;90.15
11223;BME280;5668;52.012;8.724;2023-02-07T02:57:28;102610.28;;;1.23;90.34
11223;BME280;5668;52.012;8.724;2023-02-07T03:02:45;102613.66;;;1.12;90.04
11223;BME280;5668;52.012;8.724;2023-02-07T03:05:33;102619.56;;;1.08;89.30
11223;BME280;5668;52.012;8.724;2023-02-07T03:08:11;102616.97;;;1.01;88.94
11223;BME280;5668;52.012;8.724;2023-02-07T03:10:49;102614.38;;;0.98;89.38
11223;BME280;5668;52.012;8.724;2023-02-07T03:13:27;102616.94;;;0.96;89.80
11223;BME280;5668;52.012;8.724;2023-02-07T03:16:03;102604.97;;;0.92;88.74
11223;BME280;5668;52.012;8.724;2023-02-07T03:18:42;102604.94;;;0.88;89.36
11223;BME280;5668;52.012;8.724;2023-02-07T03:21:18;102618.59;;;0.88;89.20
11223;BME280;5668;52.012;8.724;2023-02-07T03:23:48;102618.59;;;0.88;89.59
11223;BME280;5668;52.012;8.724;2023-02-07T03:26:17;102613.47;;;0.91;89.31
11223;BME280;5668;52.012;8.724;2023-02-07T03:28:46;102614.34;;;0.93;89.50
11223;BME280;5668;52.012;8.724;2023-02-07T03:31:16;102607.56;;;0.95;89.15
11223;BME280;5668;52.012;8.724;2023-02-07T03:33:48;102609.25;;;0.96;90.02
11223;BME280;5668;52.012;8.724;2023-02-07T03:36:20;102593.06;;;0.99;90.10
11223;BME280;5668;52.012;8.724;2023-02-07T03:38:49;102606.69;;;0.98;89.24
11223;BME280;5668;52.012;8.724;2023-02-07T03:41:23;102596.47;;;0.96;89.40
11223;BME280;5668;52.012;8.724;2023-02-07T03:43:55;102596.47;;;0.96;90.22
11223;BME280;5668;52.012;8.724;2023-02-07T03:46:24;102593.91;;;0.96;89.41
11223;BME280;5668;52.012;8.724;2023-02-07T03:48:52;102599.88;;;0.95;89.88
11223;BME280;5668;52.012;8.724;2023-02-07T03:51:20;102596.44;;;0.95;89.82
11223;BME280;5668;52.012;8.724;2023-02-07T03:53:47;102603.28;;;0.94;89.96
11223;BME280;5668;52.012;8.724;2023-02-07T03:56:14;102602.44;;;0.95;89.60
11223;BME280;5668;52.012;8.724;2023-02-07T03:58:42;102591.31;;;0.93;89.34
11223;BME280;5668;52.012;8.724;2023-02-07T04:01:09;102592.16;;;0.92;89.52
11223;BME280;5668;52.012;8.724;2023-02-07T04:03:36;102599.00;;;0.90;88.61
11223;BME280;5668;52.012;8.724;2023-02-07T04:06:03;102599.78;;;0.83;88.10
11223;BME280;5668;52.012;8.724;2023-02-07T04:08:32;102584.34;;;0.72;88.11
11223;BME280;5668;52.012;8.724;2023-02-07T04:11:00;102581.75;;;0.69;88.71
11223;BME280;5668;52.012;8.724;2023-02-07T04:13:29;102585.16;;;0.65;87.19
11223;BME280;5668;52.012;8.724;2023-02-07T04:15:56;102585.03;;;0.53;87.61
11223;BME280;5668;52.012;8.724;2023-02-07T04:18:23;102582.41;;;0.46;87.87
11223;BME280;5668;52.012;8.724;2023-02-07T04:20:51;102577.25;;;0.38;88.17
11223;BME280;5668;52.012;8.724;2023-02-07T04:23:18;102578.97;;;0.41;88.79
11223;BME280;5668;52.012;8.724;2023-02-07T04:25:46;102584.94;;;0.39;88.45
11223;BME280;5668;52.012;8.724;2023-02-07T04:28:14;102591.72;;;0.34;88.72
11223;BME280;5668;52.012;8.724;2023-02-07T04:30:41;102590.91;;;0.37;88.89
11223;BME280;5668;52.012;8.724;2023-02-07T04:33:08;102592.59;;;0.39;88.80
11223;BME280;5668;52.012;8.724;2023-02-07T04:35:35;102592.59;;;0.39;89.02
11223;BME280;5668;52.012;8.724;2023-02-07T04:38:02;102596.03;;;0.42;89.28
11223;BME280;5668;52.012;8.724;2023-02-07T04:40:30;102597.75;;;0.46;89.25
11223;BME280;5668;52.012;8.724;2023-02-07T04:42:58;102596.09;;;0.48;89.29
11223;BME280;5668;52.012;8.724;2023-02-07T04:45:26;102601.22;;;0.49;89.42
11223;BME280;5668;52.012;8.724;2023-02-07T04:47:53;102601.25;;;0.52;89.58
11223;BME280;5668;52.012;8.724;2023-02-07T04:50:21;102607.22;;;0.54;89.56
11223;BME280;5668;52.012;8.724;2023-02-07T04:52:48;102598.69;;;0.54;89.77
11223;BME280;5668;52.012;8.724;2023-02-07T04:55:15;102596.13;;;0.54;89.87
11223;BME280;5668;52.012;8.724;2023-02-07T04:57:43;102597.81;;;0.53;89.55
11223;BME280;5668;52.012;8.724;2023-02-07T05:00:12;102594.44;;;0.51;89.60
11223;BME280;5668;52.012;8.724;2023-02-07T05:02:39;102587.59;;;0.50;89.36
11223;BME280;5668;52.012;8.724;2023-02-07T05:05:08;102588.44;;;0.51;89.18
11223;BME280;5668;52.012;8.724;2023-02-07T05:07:35;102589.28;;;0.48;89.20
11223;BME280;5668;52.012;8.724;2023-02-07T05:10:03;102590.13;;;0.49;89.23
11223;BME280;5668;52.012;8.724;2023-02-07T05:12:31;102597.75;;;0.46;89.33
11223;BME280;5668;52.012;8.724;2023-02-07T05:14:58;102587.53;;;0.43;88.69
11223;BME280;5668;52.012;8.724;2023-02-07T05:17:27;102589.25;;;0.44;88.73
11223;BME280;5668;52.012;8.724;2023-02-07T05:19:55;102592.66;;;0.46;88.72
11223;BME280;5668;52.012;8.724;2023-02-07T05:22:22;102590.09;;;0.46;89.11
11223;BME280;5668;52.012;8.724;2023-02-07T05:24:50;102599.47;;;0.47;89.23
11223;BME280;5668;52.012;8.724;2023-02-07T05:27:17;102594.38;;;0.47;88.91
11223;BME280;5668;52.012;8.724;2023-02-07T05:29:44;102600.31;;;0.46;88.89
11223;BME280;5668;52.012;8.724;2023-02-07T05:32:13;102604.63;;;0.48;88.55
11223;BME280;5668;52.012;8.724;2023-02-07T05:34:59;102597.75;;;0.46;88.22
11223;BME280;5668;52.012;8.724;2023-02-07T05:37:27;102593.50;;;0.46;88.07
11223;BME280;5668;52.012;8.724;2023-02-07T05:39:54;102594.38;;;0.47;88.32
11223;BME280;5668;52.012;8.724;2023-02-07T05:42:21;102586.72;;;0.45;88.14
11223;BME280;5668;52.012;8.724;2023-02-07T05:44:48;102583.22;;;0.38;87.74
11223;BME280;5668;52.012;8.724;2023-02-07T05:47:15;102587.47;;;0.36;88.51
11223;BME280;5668;52.012;8.724;2023-02-07T05:49:43;102591.75;;;0.39;88.76
11223;BME280;5668;52.012;8.724;2023-02-07T05:52:11;102601.16;;;0.42;88.50
11223;BME280;5668;52.012;8.724;2023-02-07T05:54:38;102603.72;;;0.43;88.82
11223;BME280;5668;52.012;8.724;2023-02-07T05:57:05;102596.06;;;0.46;88.82
11223;BME280;5668;52.012;8.724;2023-02-07T05:59:33;102606.28;;;0.46;88.73
11223;BME280;5668;52.012;8.724;2023-02-07T06:02:00;102611.44;;;0.48;88.88
11223;BME280;5668;52.012;8.724;2023-02-07T06:04:27;102619.09;;;0.48;89.15
11223;BME280;5668;52.012;8.724;2023-02-07T06:06:54;102619.13;;;0.49;89.03
11223;BME280;5668;52.012;8.724;2023-02-07T06:09:23;102625.94;;;0.49;88.76
11223;BME280;5668;52.012;8.724;2023-02-07T06:11:50;102610.59;;;0.49;88.72
11223;BME280;5668;52.012;8.724;2023-02-07T06:14:17;102620.84;;;0.50;88.97
11223;BME280;5668;52.012;8.724;2023-02-07T06:16:44;102631.88;;;0.48;88.24
11223;BME280;5668;52.012;8.724;2023-02-07T06:19:12;102632.69;;;0.42;88.55
11223;BME280;5668;52.012;8.724;2023-02-07T06:21:39;102639.53;;;0.43;88.52
11223;BME280;5668;52.012;8.724;2023-02-07T06:24:06;102636.13;;;0.44;88.96
11223;BME280;5668;52.012;8.724;2023-02-07T06:26:35;102635.28;;;0.47;88.39
11223;BME280;5668;52.012;8.724;2023-02-07T06:29:03;102634.44;;;0.48;88.44
11223;BME280;5668;52.012;8.724;2023-02-07T06:31:30;102632.78;;;0.50;89.04
11223;BME280;5668;52.012;8.724;2023-02-07T06:33:57;102633.59;;;0.49;88.85
11223;BME280;5668;52.012;8.724;2023-02-07T06:36:24;102633.59;;;0.49;88.92
11223;BME280;5668;52.012;8.724;2023-02-07T06:38:51;102628.44;;;0.46;88.93
11223;BME280;5668;52.012;8.724;2023-02-07T06:41:20;102631.88;;;0.45;88.53
11223;BME280;5668;52.012;8.724;2023-02-07T06:43:49;102632.69;;;0.42;88.28
11223;BME280;5668;52.012;8.724;2023-02-07T06:46:16;102639.50;;;0.42;88.40
11223;BME280;5668;52.012;8.724;2023-02-07T06:48:44;102647.13;;;0.38;88.30
11223;BME280;5668;52.012;8.724;2023-02-07T06:51:11;102652.25;;;0.38;88.07
11223;BME280;5668;52.012;8.724;2023-02-07T06:53:38;102658.25;;;0.37;88.45
11223;BME280;5668;52.012;8.724;2023-02-07T06:56:05;102653.09;;;0.36;88.89
11223;BME280;5668;52.012;8.724;2023-02-07T06:58:33;102651.41;;;0.36;88.79
11223;BME280;5668;52.012;8.724;2023-02-07T07:01:02;102654.81;;;0.37;88.76
11223;BME280;5668;52.012;8.724;2023-02-07T07:03:30;102654.81;;;0.35;88.07
11223;BME280;5668;52.012;8.724;2023-02-07T07:05:57;102649.63;;;0.29;87.94
11223;BME280;5668;52.012;8.724;2023-02-07T07:08:25;102664.97;;;0.29;88.02
11223;BME280;5668;52.012;8.724;2023-02-07T07:10:53;102663.25;;;0.31;88.28
11223;BME280;5668;52.012;8.724;2023-02-07T07:13:20;102658.16;;;0.30;88.19
11223;BME280;5668;52.012;8.724;2023-02-07T07:15:47;102658.13;;;0.28;88.38
11223;BME280;5668;52.012;8.724;2023-02-07T07:18:16;102657.25;;;0.26;88.14
11223;BME280;5668;52.012;8.724;2023-02-07T07:20:43;102658.97;;;0.27;88.16
11223;BME280;5668;52.012;8.724;2023-02-07T07:23:10;102662.41;;;0.28;88.24
11223;BME280;5668;52.012;8.724;2023-02-07T07:25:38;102666.66;;;0.30;88.13
11223;BME280;5668;52.012;8.724;2023-02-07T07:28:05;102664.94;;;0.28;87.50
11223;BME280;5668;52.012;8.724;2023-02-07T07:30:32;102674.31;;;0.27;87.83
11223;BME280;5668;52.012;8.724;2023-02-07T07:32:59;102670.00;;;0.23;87.70
11223;BME280;5668;52.012;8.724;2023-02-07T07:35:28;102671.69;;;0.20;88.58
11223;BME280;5668;52.012;8.724;2023-02-07T07:37:55;102675.13;;;0.25;88.43
11223;BME280;5668;52.012;8.724;2023-02-07T07:40:22;102682.81;;;0.26;88.73
11223;BME280;5668;52.012;8.724;2023-02-07T07:42:50;102686.28;;;0.31;88.40
11223;BME280;5668;52.012;8.724;2023-02-07T07:45:17;102684.59;;;0.33;88.79
11223;BME280;5668;52.012;8.724;2023-02-07T07:47:44;102673.56;;;0.36;89.42
11223;BME280;5668;52.012;8.724;2023-02-07T07:50:12;102677.81;;;0.38;88.96
11223;BME280;5668;52.012;8.724;2023-02-07T07:52:41;102676.16;;;0.41;89.23
11223;BME280;5668;52.012;8.724;2023-02-07T07:55:10;102671.03;;;0.41;89.42
11223;BME280;5668;52.012;8.724;2023-02-07T07:57:37;102673.63;;;0.42;89.39
11223;BME280;5668;52.012;8.724;2023-02-07T08:00:05;102681.25;;;0.41;89.42
11223;BME280;5668;52.012;8.724;2023-02-07T08:02:32;102671.88;;;0.39;90.08
11223;BME280;5668;52.012;8.724;2023-02-07T08:04:59;102677.00;;;0.39;90.48
11223;BME280;5668;52.012;8.724;2023-02-07T08:07:27;102677.88;;;0.43;90.75
11223;BME280;5668;52.012;8.724;2023-02-07T08:09:55;102671.91;;;0.43;90.90
11223;BME280;5668;52.012;8.724;2023-02-07T08:12:22;102672.78;;;0.45;90.91
11223;BME280;5668;52.012;8.724;2023-02-07T08:14:50;102670.22;;;0.43;91.66
11223;BME280;5668;52.012;8.724;2023-02-07T08:17:17;102674.53;;;0.49;91.53
11223;BME280;5668;52.012;8.724;2023-02-07T08:19:44;102672.84;;;0.51;91.88
11223;BME280;5668;52.012;8.724;2023-02-07T08:22:11;102667.75;;;0.54;92.00
11223;BME280;5668;52.012;8.724;2023-02-07T08:24:39;102660.06;;;0.54;92.22
11223;BME280;5668;52.012;8.724;2023-02-07T08:27:08;102663.50;;;0.54;91.77
11223;BME280;5668;52.012;8.724;2023-02-07T08:29:35;102672.88;;;0.55;92.50
11223;BME280;5668;52.012;8.724;2023-02-07T08:32:03;102675.47;;;0.58;92.68
11223;BME280;5668;52.012;8.724;2023-02-07T08:34:30;102672.97;;;0.63;92.91
11223;BME280;5668;52.012;8.724;2023-02-07T08:37:03;102673.78;;;0.62;92.54
11223;BME280;5668;52.012;8.724;2023-02-07T08:39:30;102672.97;;;0.63;92.55
11223;BME280;5668;52.012;8.724;2023-02-07T08:41:58;102673.00;;;0.66;92.76
11223;BME280;5668;52.012;8.724;2023-02-07T08:44:27;102668.72;;;0.65;92.62
11223;BME280;5668;52.012;8.724;2023-02-07T08:46:54;102680.69;;;0.69;93.07
11223;BME280;5668;52.012;8.724;2023-02-07T08:49:21;102682.38;;;0.68;92.95
11223;BME280;5668;52.012;8.724;2023-02-07T08:51:48;102681.56;;;0.72;93.80
11223;BME280;5668;52.012;8.724;2023-02-07T08:54:16;102673.09;;;0.75;93.61
11223;BME280;5668;52.012;8.724;2023-02-07T08:56:43;102673.06;;;0.76;93.42
11223;BME280;5668;52.012;8.724;2023-02-07T08:59:10;102665.41;;;0.78;93.35
11223;BME280;5668;52.012;8.724;2023-02-07T09:01:39;102662.03;;;0.84;93.79
11223;BME280;5668;52.012;8.724;2023-02-07T09:04:06;102661.22;;;0.86;92.99
11223;BME280;5668;52.012;8.724;2023-02-07T09:06:34;102660.38;;;0.87;93.15
11223;BME280;5668;52.012;8.724;2023-02-07T09:09:02;102657.84;;;0.90;93.60
11223;BME280;5668;52.012;8.724;2023-02-07T09:11:29;102657.88;;;0.93;92.92
11223;BME280;5668;52.012;8.724;2023-02-07T09:13:57;102646.81;;;0.96;92.86
11223;BME280;5668;52.012;8.724;2023-02-07T09:16:24;102645.94;;;0.98;93.21
11223;BME280;5668;52.012;8.724;2023-02-07T09:18:52;102637.47;;;1.05;93.50
11223;BME280;5668;52.012;8.724;2023-02-07T09:21:20;102639.19;;;1.08;92.93
11223;BME280;5668;52.012;8.724;2023-02-07T09:23:47;102630.69;;;1.10;93.05
11223;BME280;5668;52.012;8.724;2023-02-07T09:26:17;102626.44;;;1.14;92.80
11223;BME280;5668;52.012;8.724;2023-02-07T09:28:45;102625.59;;;1.16;93.71
11223;BME280;5668;52.012;8.724;2023-02-07T09:31:13;102628.19;;;1.20;92.78
11223;BME280;5668;52.012;8.724;2023-02-07T09:33:41;102623.09;;;1.26;93.38
11223;BME280;5668;52.012;8.724;2023-02-07T09:36:18;102619.72;;;1.31;93.32
11223;BME280;5668;52.012;8.724;2023-02-07T09:38:46;102620.59;;;1.36;93.50
11223;BME280;5668;52.012;8.724;2023-02-07T09:41:27;102633.41;;;1.38;92.66
11223;BME280;5668;52.012;8.724;2023-02-07T09:44:07;102641.13;;;1.41;93.71
11223;BME280;5668;52.012;8.724;2023-02-07T09:46:42;102650.53;;;1.42;92.92
11223;BME280;5668;52.012;8.724;2023-02-07T09:49:14;102639.44;;;1.46;93.18
11223;BME280;5668;52.012;8.724;2023-02-07T09:51:45;102635.16;;;1.51;93.67
11223;BME280;5668;52.012;8.724;2023-02-07T09:54:21;102635.22;;;1.57;93.19
11223;BME280;5668;52.012;8.724;2023-02-07T09:56:51;102635.25;;;1.63;93.22
11223;BME280;5668;52.012;8.724;2023-02-07T09:59:22;102646.38;;;1.68;93.81
11223;BME280;5668;52.012;8.724;2023-02-07T10:01:55;102640.44;;;1.72;92.54
11223;BME280;5668;52.012;8.724;2023-02-07T10:04:28;102636.13;;;1.74;93.52
11223;BME280;5668;52.012;8.724;2023-02-07T10:07:04;102643.88;;;1.80;92.76
11223;BME280;5668;52.012;8.724;2023-02-07T10:09:38;102648.19;;;1.87;92.55
11223;BME280;5668;52.012;8.724;2023-02-07T10:12:20;102643.03;;;1.90;93.20
11223;BME280;5668;52.012;8.724;2023-02-07T10:15:02;102641.34;;;1.99;93.45
11223;BME280;5668;52.012;8.724;2023-02-07T10:17:47;102643.13;;;2.10;92.83
11223;BME280;5668;52.012;8.724;2023-02-07T10:20:30;102642.25;;;2.19;92.97
11223;BME280;5668;52.012;8.724;2023-02-07T10:23:14;102635.44;;;2.18;92.55
11223;BME280;5668;52.012;8.724;2023-02-07T10:25:54;102643.16;;;2.24;92.65
11223;BME280;5668;52.012;8.724;2023-02-07T10:28:44;102644.88;;;2.31;91.59
11223;BME280;5668;52.012;8.724;2023-02-07T10:31:16;102639.75;;;2.37;91.92
11223;BME280;5668;52.012;8.724;2023-02-07T10:33:47;102638.91;;;2.47;91.48
11223;BME280;5668;52.012;8.724;2023-02-07T10:36:17;102644.03;;;2.58;91.44
11223;BME280;5668;52.012;8.724;2023-02-07T10:38:51;102648.34;;;2.69;91.70
11223;BME280;5668;52.012;8.724;2023-02-07T10:41:27;102650.03;;;2.89;93.33
11223;BME280;5668;52.012;8.724;2023-02-07T10:43:56;102651.72;;;3.02;94.42
11223;BME280;5668;52.012;8.724;2023-02-07T10:46:24;102644.88;;;3.19;96.21
11223;BME280;5668;52.012;8.724;2023-02-07T10:48:51;102644.81;;;3.40;98.33
11223;BME280;5668;52.012;8.724;2023-02-07T10:51:24;102648.22;;;3.61;99.22
11223;BME280;5668;52.012;8.724;2023-02-07T10:54:06;102640.41;;;3.79;99.33
11223;BME280;5668;52.012;8.724;2023-02-07T10:56:35;102639.47;;;3.98;99.80
11223;BME280;5668;52.012;8.724;2023-02-07T10:59:34;102639.34;;;4.16;99.87
11223;BME280;5668;52.012;8.724;2023-02-07T11:02:28;102634.97;;;4.34;100.00
11223;BME280;5668;52.012;8.724;2023-02-07T11:04:58;102621.09;;;4.51;100.00
11223;BME280;5668;52.012;8.724;2023-02-07T11:07:27;102622.69;;;4.67;100.00
11223;BME280;5668;52.012;8.724;2023-02-07T11:10:15;102612.22;;;4.87;100.00
11223;BME280;5668;52.012;8.724;2023-02-07T11:12:46;102618.13;;;5.00;99.71
11223;BME280;5668;52.012;8.724;2023-02-07T11:15:17;102618.84;;;5.13;99.21
11223;BME280;5668;52.012;8.724;2023-02-07T11:17:49;102618.66;;;5.29;98.54
11223;BME280;5668;52.012;8.724;2023-02-07T11:20:21;102612.56;;;5.39;98.46
11223;BME280;5668;52.012;8.724;2023-02-07T11:22:51;102604.63;;;5.56;98.22
11223;BME280;5668;52.012;8.724;2023-02-07T11:25:26;102607.81;;;5.73;97.50
11223;BME280;5668;52.012;8.724;2023-02-07T11:27:55;102606.78;;;5.90;97.30
11223;BME280;5668;52.012;8.724;2023-02-07T11:30:23;102603.09;;;6.09;97.98
11223;BME280;5668;52.012;8.724;2023-02-07T11:32:56;102605.41;;;6.26;97.31
11223;BME280;5668;52.012;8.724;2023-02-07T11:35:24;102601.75;;;6.40;97.05
11223;BME280;5668;52.012;8.724;2023-02-07T11:37:59;102600.63;;;6.56;96.99
11223;BME280;5668;52.012;8.724;2023-02-07T11:40:30;102606.53;;;6.65;94.37
11223;BME280;5668;52.012;8.724;2023-02-07T11:43:05;102599.53;;;6.70;93.41
11223;BME280;5668;52.012;8.724;2023-02-07T11:45:38;102604.41;;;6.86;93.59
11223;BME280;5668;52.012;8.724;2023-02-07T11:48:15;102605.88;;;7.01;92.74
11223;BME280;5668;52.012;8.724;2023-02-07T11:50:46;102608.31;;;7.09;90.83
11223;BME280;5668;52.012;8.724;2023-02-07T11:53:21;102603.69;;;7.26;91.00
11223;BME280;5668;52.012;8.724;2023-02-07T11:55:52;102602.53;;;7.42;88.12
11223;BME280;5668;52.012;8.724;2023-02-07T11:58:27;102593.78;;;7.48;85.81
11223;BME280;5668;52.012;8.724;2023-02-07T12:00:57;102593.53;;;7.60;85.32
11223;BME280;5668;52.012;8.724;2023-02-07T12:03:27;102596.03;;;7.64;80.81
11223;BME280;5668;52.012;8.724;2023-02-07T12:06:00;102596.75;;;7.71;79.13
11223;BME280;5668;52.012;8.724;2023-02-07T12:08:31;102596.72;;;7.72;77.50
11223;BME280;5668;52.012;8.724;2023-02-07T12:11:03;102597.47;;;7.77;76.33
11223;BME280;5668;52.012;8.724;2023-02-07T12:13:35;102594.78;;;7.82;75.06
11223;BME280;5668;52.012;8.724;2023-02-07T12:16:09;102592.88;;;7.90;74.42
11223;BME280;5668;52.012;8.724;2023-02-07T12:18:41;102590.09;;;7.98;74.65
11223;BME280;5668;52.012;8.724;2023-02-07T12:21:18;102589.25;;;7.97;71.50
11223;BME280;5668;52.012;8.724;2023-02-07T12:23:51;102587.50;;;7.99;71.54
11223;BME280;5668;52.012;8.724;2023-02-07T12:26:24;102590.06;;;8.01;72.93
11223;BME280;5668;52.012;8.724;2023-02-07T12:29:05;102596.00;;;8.04;72.10
11223;BME280;5668;52.012;8.724;2023-02-07T12:31:42;102593.63;;;7.97;69.75
11223;BME280;5668;52.012;8.724;2023-02-07T12:34:19;102593.69;;;7.92;69.20
11223;BME280;5668;52.012;8.724;2023-02-07T12:36:52;102580.84;;;7.89;69.04
11223;BME280;5668;52.012;8.724;2023-02-07T12:39:28;102583.47;;;7.86;67.73
11223;BME280;5668;52.012;8.724;2023-02-07T12:42:10;102590.59;;;7.76;67.80
11223;BME280;5668;52.012;8.724;2023-02-07T12:44:45;102586.22;;;7.80;68.65
11223;BME280;5668;52.012;8.724;2023-02-07T12:47:21;102588.94;;;7.74;67.17
11223;BME280;5668;52.012;8.724;2023-02-07T12:50:08;102588.13;;;7.70;68.32
11223;BME280;5668;52.012;8.724;2023-02-07T12:52:46;102584.81;;;7.64;67.64
11223;BME280;5668;52.012;8.724;2023-02-07T12:55:23;102582.41;;;7.56;66.52
11223;BME280;5668;52.012;8.724;2023-02-07T12:58:03;102575.63;;;7.51;66.11
11223;BME280;5668;52.012;8.724;2023-02-07T13:00:46;102577.50;;;7.44;67.12
11223;BME280;5668;52.012;8.724;2023-02-07T13:03:22;102574.09;;;7.41;67.28
11223;BME280;5668;52.012;8.724;2023-02-07T13:06:07;102568.19;;;7.34;65.63
11223;BME280;5668;52.012;8.724;2023-02-07T13:08:43;102569.19;;;7.28;66.16
11223;BME280;5668;52.012;8.724;2023-02-07T13:11:22;102563.19;;;7.26;65.47
11223;BME280;5668;52.012;8.724;2023-02-07T13:14:01;102561.47;;;7.25;66.33
11223;BME280;5668;52.012;8.724;2023-02-07T13:16:39;102561.63;;;7.18;64.76
11223;BME280;5668;52.012;8.724;2023-02-07T13:19:13;102564.25;;;7.15;66.27
11223;BME280;5668;52.012;8.724;2023-02-07T13:21:48;102561.75;;;7.12;66.78
11223;BME280;5668;52.012;8.724;2023-02-07T13:24:19;102563.47;;;7.11;66.41
11223;BME280;5668;52.012;8.724;2023-02-07T13:26:50;102561.75;;;7.10;66.26
11223;BME280;5668;52.012;8.724;2023-02-07T13:29:22;102552.31;;;7.09;66.27
11223;BME280;5668;52.012;8.724;2023-02-07T13:31:52;102549.78;;;7.06;65.65
11223;BME280;5668;52.012;8.724;2023-02-07T13:34:23;102548.06;;;7.07;65.57
11223;BME280;5668;52.012;8.724;2023-02-07T13:36:52;102548.06;;;7.07;65.75